createdAt,value
2022-11-21T00:00:36.200Z,2.5
2022-11-21T00:05:36.211Z,2.4
2022-11-21T00:10:36.213Z,2.4
2022-11-21T00:15:36.195Z,2.8
2022-11-21T00:20:36.211Z,2.4
2022-11-21T00:25:36.193Z,2.6
2022-11-21T00:30:36.254Z,2.9
2022-11-21T00:35:36.215Z,3.1
2022-11-21T00:40:36.204Z,3.1
2022-11-21T00:45:36.233Z,3.5
2022-11-21T00:50:36.216Z,3.6
2022-11-21T00:55:36.236Z,4
2022-11-21T01:00:36.283Z,4.6
2022-11-21T01:05:36.208Z,5.9
2022-11-21T01:10:36.200Z,5.9
2022-11-21T01:15:36.213Z,4.8
2022-11-21T01:20:36.224Z,5.2
2022-11-21T01:25:36.198Z,5.5
2022-11-21T01:30:36.215Z,4.6
2022-11-21T01:35:36.235Z,4.8
2022-11-21T01:40:36.204Z,4.8
2022-11-21T01:45:36.221Z,4.2
2022-11-21T01:50:36.207Z,4.6
2022-11-21T01:55:36.213Z,4.8
2022-11-21T02:00:36.236Z,4
2022-11-21T02:05:36.242Z,5.1
2022-11-21T02:10:36.216Z,5.1
2022-11-21T02:15:36.217Z,4.8
2022-11-21T02:20:36.198Z,5.3
2022-11-21T02:25:36.221Z,4.6
2022-11-21T02:30:36.226Z,4.8
2022-11-21T02:35:36.242Z,3.8
2022-11-21T02:40:36.214Z,3.8
2022-11-21T02:45:36.211Z,4.3
2022-11-21T02:50:36.233Z,5.4
2022-11-21T02:55:36.207Z,5.4
2022-11-21T03:00:36.286Z,4
2022-11-21T03:05:36.224Z,5.6
2022-11-21T03:10:36.222Z,5.6
2022-11-21T03:15:36.237Z,4.8
2022-11-21T03:20:36.230Z,5.8
2022-11-21T03:25:36.219Z,4.3
2022-11-21T03:30:36.280Z,5.4
2022-11-21T03:35:36.224Z,5
2022-11-21T03:40:36.298Z,5
2022-11-21T03:45:36.233Z,5.5
2022-11-21T03:50:36.219Z,4.8
2022-11-21T03:55:36.215Z,5.2
2022-11-21T04:00:36.220Z,4.9
2022-11-21T04:05:36.279Z,4.2
2022-11-21T04:10:36.224Z,4.2
2022-11-21T04:15:36.237Z,3.5
2022-11-21T04:20:36.230Z,4.4
2022-11-21T04:25:36.251Z,4.5
2022-11-21T04:30:36.222Z,4.7
2022-11-21T04:35:36.237Z,4.2
2022-11-21T04:40:36.215Z,4.2
2022-11-21T04:45:36.235Z,3.8
2022-11-21T04:50:36.236Z,4.5
2022-11-21T04:55:36.239Z,5.6
2022-11-21T05:00:36.238Z,4.6
2022-11-21T05:05:36.240Z,3.9
2022-11-21T05:10:36.247Z,3.9
2022-11-21T05:15:36.229Z,4.8
2022-11-21T05:20:37.083Z,4.3
2022-11-21T05:25:36.224Z,4
2022-11-21T05:30:36.241Z,4.5
2022-11-21T05:35:41.660Z,3.5
2022-11-21T05:40:36.230Z,3.5
2022-11-21T05:45:36.239Z,3.8
2022-11-21T05:50:36.263Z,4.3
2022-11-21T05:55:36.224Z,3.7
2022-11-21T06:00:36.234Z,4.3
2022-11-21T06:05:36.259Z,4.4
2022-11-21T06:10:36.240Z,4.4
2022-11-21T06:15:36.236Z,4.1
2022-11-21T06:20:36.322Z,4.5
2022-11-21T06:25:36.254Z,4
2022-11-21T06:30:36.244Z,4.2
2022-11-21T06:35:36.278Z,5.1
2022-11-21T06:40:36.254Z,5.1
2022-11-21T06:45:36.238Z,4.9
2022-11-21T06:50:36.301Z,5.7
2022-11-21T06:55:36.248Z,5.9
2022-11-21T07:00:36.241Z,5.3
2022-11-21T07:05:36.244Z,5.1
2022-11-21T07:10:36.282Z,5.1
2022-11-21T07:15:36.242Z,5.2
2022-11-21T07:20:36.248Z,4.9
2022-11-21T07:25:37.004Z,5.1
2022-11-21T07:30:36.275Z,5
2022-11-21T07:35:36.257Z,5.8
2022-11-21T07:40:36.255Z,5.8
2022-11-21T07:45:36.260Z,5.6
2022-11-21T07:50:36.263Z,5.3
2022-11-21T07:55:40.190Z,6.2
2022-11-21T08:00:36.256Z,5.5
2022-11-21T08:05:36.252Z,5.5
2022-11-21T08:10:36.273Z,5.8
2022-11-21T08:15:36.257Z,5.9
2022-11-21T08:20:36.273Z,7
2022-11-21T08:25:36.262Z,7.2
2022-11-21T08:30:36.286Z,6.5
2022-11-21T08:35:36.289Z,6.5
2022-11-21T08:40:36.269Z,6.1
2022-11-21T08:45:36.325Z,6.9
2022-11-21T08:50:36.288Z,7.7
2022-11-21T08:55:36.286Z,7.9
2022-11-21T09:00:36.269Z,9.2
2022-11-21T09:05:36.304Z,9.2
2022-11-21T09:10:36.270Z,7.8
2022-11-21T09:15:36.274Z,9.2
2022-11-21T09:20:36.510Z,9.1
2022-11-21T09:25:36.262Z,9.4
2022-11-21T09:30:36.279Z,10.6
2022-11-21T09:35:36.311Z,10.6
2022-11-21T09:40:36.276Z,9.3
2022-11-21T09:45:36.289Z,9.2
2022-11-21T09:50:36.273Z,9.8
2022-11-21T09:55:36.340Z,11.2
2022-11-21T10:00:36.297Z,8
2022-11-21T10:05:36.249Z,8
2022-11-21T10:10:36.254Z,11.9
2022-11-21T10:15:36.292Z,11.7
2022-11-21T10:20:36.287Z,10.5
2022-11-21T10:25:36.322Z,10
2022-11-21T10:30:36.361Z,9
2022-11-21T10:35:36.306Z,9
2022-11-21T10:40:36.283Z,8.8
2022-11-21T10:45:36.317Z,6.6
2022-11-21T10:50:36.296Z,6.9
2022-11-21T10:55:36.307Z,7.8
2022-11-21T11:00:36.323Z,8.6
2022-11-21T11:05:36.307Z,8.6
2022-11-21T11:10:36.283Z,7.9
2022-11-21T11:15:36.335Z,6.8
2022-11-21T11:20:36.294Z,5.1
2022-11-21T11:25:36.315Z,5.8
2022-11-21T11:30:36.318Z,3.7
2022-11-21T11:35:36.386Z,3.7
2022-11-21T11:40:36.314Z,5.5
2022-11-21T11:45:36.305Z,5.1
2022-11-21T11:50:36.323Z,4.2
2022-11-21T11:55:36.307Z,4.7
2022-11-21T12:00:36.300Z,6
2022-11-21T12:05:36.320Z,6
2022-11-21T12:10:36.309Z,3.9
2022-11-21T12:15:36.310Z,3.2
2022-11-21T12:20:36.306Z,2.5
2022-11-21T12:25:36.326Z,2.5
2022-11-21T12:30:36.312Z,2.7
2022-11-21T12:35:36.327Z,2.7
2022-11-21T12:40:36.331Z,2.7
2022-11-21T12:45:36.334Z,3.5
2022-11-21T12:50:36.321Z,3.6
2022-11-21T12:55:36.339Z,2.2
2022-11-21T13:00:36.315Z,1.6
2022-11-21T13:05:36.394Z,1.6
2022-11-21T13:10:36.332Z,1.7
2022-11-21T13:15:38.565Z,1.3
2022-11-21T13:20:36.348Z,1.7
2022-11-21T13:25:36.343Z,2.3
2022-11-21T13:30:36.323Z,1.7
2022-11-21T13:35:36.357Z,1.7
2022-11-21T13:40:36.334Z,2
2022-11-21T13:45:36.397Z,1.9
2022-11-21T13:50:36.349Z,2.3
2022-11-21T13:55:36.349Z,2.8
2022-11-21T14:00:36.331Z,1.8
2022-11-21T14:05:36.369Z,1.8
2022-11-21T14:10:36.338Z,2.1
2022-11-21T14:15:36.337Z,2.2
2022-11-21T14:20:36.349Z,3.1
2022-11-21T14:25:36.338Z,1.8
2022-11-21T14:30:36.349Z,2.2
2022-11-21T14:35:36.435Z,2.2
2022-11-21T14:40:36.398Z,2.5
2022-11-21T14:45:36.362Z,2.4
2022-11-21T14:50:36.362Z,2.4
2022-11-21T14:55:36.351Z,2.2
2022-11-21T15:00:59.735Z,2.5
2022-11-21T15:06:00.644Z,2.5
2022-11-21T15:10:36.725Z,2.4
2022-11-21T15:15:36.407Z,2.3
2022-11-21T15:20:36.356Z,2.5
2022-11-21T15:25:36.370Z,3.4
2022-11-21T15:30:36.311Z,3.9
2022-11-21T15:35:36.377Z,3.9
2022-11-21T15:40:36.392Z,4.6
2022-11-21T15:45:36.362Z,5.1
2022-11-21T15:50:36.374Z,3.1
2022-11-21T15:55:36.401Z,3.3
2022-11-21T16:04:22.412Z,2.4
2022-11-21T16:09:17.683Z,3.1
2022-11-21T16:14:17.655Z,3.3
2022-11-21T16:19:17.819Z,3.5
2022-11-21T16:24:17.675Z,2.8
2022-11-21T16:29:17.685Z,2.8
2022-11-21T16:34:17.671Z,3.2
2022-11-21T16:39:18.608Z,3.9
2022-11-21T16:44:17.686Z,4.6
2022-11-21T16:49:17.654Z,4.2
2022-11-21T16:54:17.704Z,3.6
2022-11-21T16:59:17.668Z,3.6
2022-11-21T17:04:17.832Z,3.1
2022-11-21T17:09:17.686Z,3.2
2022-11-21T17:14:17.676Z,3
2022-11-21T17:19:17.683Z,3.3
2022-11-21T17:24:17.682Z,3.2
2022-11-21T17:29:17.697Z,3.2
2022-11-21T17:34:17.771Z,2.4
2022-11-21T17:39:17.697Z,2.4
2022-11-21T17:44:17.656Z,4.1
2022-11-21T17:49:17.778Z,3.9
2022-11-21T17:54:17.706Z,3.7
2022-11-21T17:59:17.705Z,3.7
2022-11-21T18:04:17.720Z,3.8
2022-11-21T18:09:17.706Z,3.5
2022-11-21T18:14:17.711Z,15.6
2022-11-21T18:19:17.712Z,4.4
2022-11-21T18:24:17.710Z,3.5
2022-11-21T18:29:35.653Z,3.5
2022-11-21T18:34:17.713Z,3.2
2022-11-21T18:39:17.780Z,3.3
2022-11-21T18:44:21.955Z,5.6
2022-11-21T18:49:18.330Z,4.1
2022-11-21T18:54:17.715Z,3.8
2022-11-21T18:59:17.730Z,3.8
2022-11-21T19:04:17.693Z,7.3
2022-11-21T19:09:17.738Z,7.2
2022-11-21T19:14:17.700Z,5.8
2022-11-21T19:19:35.088Z,6.4
2022-11-21T19:24:17.716Z,4.2
2022-11-21T19:29:17.709Z,4.2
2022-11-21T19:34:17.713Z,5.3
2022-11-21T19:39:17.713Z,3.8
2022-11-21T19:44:17.715Z,5.7
2022-11-21T19:49:17.700Z,5.8
2022-11-21T19:54:17.715Z,5.4
2022-11-21T19:59:17.700Z,5.4
2022-11-21T20:04:17.711Z,4.6
2022-11-21T20:09:17.742Z,4.6
2022-11-21T20:14:21.840Z,4.7
2022-11-21T20:19:17.732Z,4.3
2022-11-21T20:24:17.728Z,4.1
2022-11-21T20:29:17.724Z,4.1
2022-11-21T20:34:17.722Z,4.4
2022-11-21T20:39:17.759Z,4.1
2022-11-21T20:45:48.120Z,2.4
2022-11-21T20:49:17.722Z,3.5
2022-11-21T20:54:17.724Z,2
2022-11-21T20:59:17.714Z,2
2022-11-21T21:04:17.725Z,2.9
2022-11-21T21:09:17.727Z,3
2022-11-21T21:14:17.710Z,5.2
2022-11-21T21:19:17.715Z,2.4
2022-11-21T21:24:17.730Z,2.2
2022-11-21T21:29:17.731Z,2.2
2022-11-21T21:34:17.890Z,1.4
2022-11-21T21:39:17.713Z,2.3
2022-11-21T21:44:17.739Z,1.6
2022-11-21T21:49:17.724Z,1.3
2022-11-21T21:54:17.742Z,1.4
2022-11-21T21:59:17.730Z,1.4
2022-11-21T22:04:17.729Z,2.8
2022-11-21T22:09:17.729Z,2.2
2022-11-21T22:14:17.728Z,1.7
2022-11-21T22:19:17.722Z,1.3
2022-11-21T22:24:25.245Z,2.2
2022-11-21T22:29:17.742Z,2.2
2022-11-21T22:34:17.724Z,1.9
2022-11-21T22:39:17.707Z,2
2022-11-21T22:44:17.728Z,1.5
2022-11-21T22:49:17.720Z,2.1
2022-11-21T22:54:17.728Z,1.8
2022-11-21T22:59:17.745Z,1.8
2022-11-21T23:04:29.665Z,2
2022-11-21T23:09:17.732Z,2.7
2022-11-21T23:14:17.739Z,2.6
2022-11-21T23:19:17.753Z,3.1
2022-11-21T23:24:17.759Z,2.6
2022-11-21T23:29:17.710Z,2.6
2022-11-21T23:34:17.728Z,2.2
2022-11-21T23:39:17.742Z,1.7
2022-11-21T23:44:17.733Z,1.6
2022-11-21T23:49:17.726Z,1.5
2022-11-21T23:59:17.718Z,2.3
